Create Tblcommutelog Verified Points Advance Search
| # | Trip ID | Id Commuter | Trip Date | Trip Num | Current Lat | Current Lng | Delta Distance | Current Time | Activity | Activity Confidence | Current Speed | |
|---|---|---|---|---|---|---|---|---|---|---|---|---|
| 70701 | 251013_789022_16657785_2140 | 789022 | (not set) | (not set) | 38.888226777737 | -77.061366248239 | 1.6023 | 2025-10-13 21:48:34 | in_vehicle | 100 | 6.482069255322 | |
| 70702 | 251013_789022_16657785_2140 | 789022 | (not set) | (not set) | 38.888311567525 | -77.062620273093 | 1.6702 | 2025-10-13 21:48:47 | in_vehicle | 100 | 4.2379321752036 | |
| 70703 | 251013_789022_16657785_2140 | 789022 | (not set) | (not set) | 38.886920779166 | -77.062055726759 | 1.7708 | 2025-10-13 21:48:58 | in_vehicle | 100 | 7.8410686026447 | |
| 70704 | 251013_789022_16657785_2140 | 789022 | (not set) | (not set) | 38.884772921149 | -77.060930074862 | 1.931 | 2025-10-13 21:49:11 | in_vehicle | 100 | 9.396765223922 | |
| 70705 | 251013_789022_16657785_2140 | 789022 | (not set) | (not set) | 38.882924165903 | -77.05926512084 | 2.0869 | 2025-10-13 21:49:23 | in_vehicle | 100 | 9.3610020832029 | |
| 70706 | 251013_789022_16657785_2140 | 789022 | (not set) | (not set) | 38.88109360875 | -77.057487473827 | 2.2454 | 2025-10-13 21:49:36 | in_vehicle | 100 | 8.73961751321 | |
| 70707 | 251013_789022_16657785_2140 | 789022 | (not set) | (not set) | 38.878782993107 | -77.057172817772 | 2.4057 | 2025-10-13 21:49:49 | in_vehicle | 100 | 9.2447718758661 | |
| 70708 | 251013_789022_16657785_2140 | 789022 | (not set) | (not set) | 38.876361904909 | -77.057350992003 | 2.573 | 2025-10-13 21:50:02 | in_vehicle | 100 | 9.1911271647876 | |
| 70709 | 251013_789022_16657785_2140 | 789022 | (not set) | (not set) | 38.874030222941 | -77.058163320648 | 2.7397 | 2025-10-13 21:50:15 | in_vehicle | 100 | 9.4414691498207 | |
| 70710 | 251013_789022_16657785_2140 | 789022 | (not set) | (not set) | 38.871924795688 | -77.059469045047 | 2.9011 | 2025-10-13 21:50:27 | still | 33 | 9.7678078088818 | |
| 70711 | 251013_789022_16657785_2140 | 789022 | (not set) | (not set) | 38.86985583498 | -77.060997175917 | 3.0659 | 2025-10-13 21:50:39 | in_vehicle | 100 | 9.8572156606793 | |
| 70712 | 251013_789022_16657785_2140 | 789022 | (not set) | (not set) | 38.86799912305 | -77.062727428071 | 3.2244 | 2025-10-13 21:50:51 | in_vehicle | 100 | 9.0570153870913 | |
| 70713 | 251013_789022_16657785_2140 | 789022 | (not set) | (not set) | 38.866959196934 | -77.065416697225 | 3.3862 | 2025-10-13 21:51:05 | in_vehicle | 100 | 7.9081244914928 | |
| 70714 | 251013_789022_16657785_2140 | 789022 | (not set) | (not set) | 38.86579618313 | -77.067901253063 | 3.5423 | 2025-10-13 21:51:20 | in_vehicle | 100 | 6.9738124402085 | |
| 70715 | 251013_789022_16657785_2140 | 789022 | (not set) | (not set) | 38.864194769566 | -77.069258872019 | 3.6749 | 2025-10-13 21:51:33 | in_vehicle | 100 | 7.9930619507005 | |
| 70716 | 251013_789022_16657785_2140 | 789022 | (not set) | (not set) | 38.861835339393 | -77.06954210692 | 3.8383 | 2025-10-13 21:51:46 | in_vehicle | 100 | 10.720001430526 | |
| 70717 | 251013_789022_16657785_2140 | 789022 | (not set) | (not set) | 38.859119873078 | -77.070461362915 | 4.0321 | 2025-10-13 21:51:58 | in_vehicle | 100 | 12.02535606677 | |
| 70718 | 251013_789022_16657785_2140 | 789022 | (not set) | (not set) | 38.856524120153 | -77.072185466155 | 4.2338 | 2025-10-13 21:52:10 | in_vehicle | 100 | 12.284638836983 | |
| 70719 | 251013_789022_16657785_2140 | 789022 | (not set) | (not set) | 38.854121225107 | -77.073843555899 | 4.4222 | 2025-10-13 21:52:21 | in_vehicle | 100 | 12.239934911084 | |
| 70720 | 251013_789022_16657785_2140 | 789022 | (not set) | (not set) | 38.851583590003 | -77.075718009326 | 4.6244 | 2025-10-13 21:52:33 | in_vehicle | 100 | 12.047708029719 |